Rosa Maersk — OVST2 — position and weather

sailwx.info

Track history (hours):
 
Tides and Currents Weather Stations Pressure Air Temp Water Temp Dewpoint Dewpoint Depression Visibility Wind Speed Wind Dir Waves Ship Positions

Rosa Maersk

Last reported at 2014-Aug-12 11:25 UTC. Time now 2014-Aug-20 08:48 UTC.
Position N 37°22' W 000°52'.

Length 172 m; draft 11 m.

Type: Ship. MMSI: 220288000.

Date/timePositionNaut miles runAvg speedWind from/ knotsBaromVisibWave heightAir tempDewpointWater temp
2014-Aug-12 11:25N 37°22' W 000°52'1112.2
2014-Aug-12 10:33N 37°29' W 000°42'1212.3
2014-Aug-12 09:33N 37°38' W 000°31'1212.0
2014-Aug-12 08:33N 37°48' W 000°23'1212.0
2014-Aug-12 07:33N 37°58' W 000°14'6712.3
2014-Aug-12 02:08N 38°53' E 000°33'1212.4
2014-Aug-12 01:12N 39°03' E 000°41'812.2
2014-Aug-12 00:33N 39°09' E 000°47'3911.9
2014-Aug-11 21:18N 39°42' E 001°14'911.9
2014-Aug-11 20:33N 39°49' E 001°21'1212.1
2014-Aug-11 19:33N 39°59' E 001°29'1211.4
2014-Aug-11 18:33N 40°09' E 001°38'1211.6
2014-Aug-11 17:33N 40°18' E 001°46'2311.6
2014-Aug-11 15:33N 40°38' E 002°03'9 9.3
2014-Aug-11 14:33N 40°44' E 001°55'1311.7
2014-Aug-11 13:27N 40°51' E 001°40'1110.9
2014-Aug-11 12:29N 40°56' E 001°28'14 0.4
2014-Aug-10 04:05N 41°05' E 001°14'3 3.3
2014-Aug-10 03:19N 41°05' E 001°17'0 0.0
2014-Aug-09 23:10N 41°05' E 001°17'0 0.1
2014-Aug-09 22:26N 41°05' E 001°17'3 3.7
2014-Aug-09 21:33N 41°02' E 001°17'5 5.3
2014-Aug-09 20:33N 40°59' E 001°23'4 2.4
2014-Aug-09 19:03N 40°56' E 001°26'1 1.0
2014-Aug-09 18:32N 40°56' E 001°26'1 1.0
2014-Aug-09 17:33N 40°55' E 001°27'1 1.2
2014-Aug-09 16:18N 40°54' E 001°28'3 4.0
2014-Aug-09 15:31N 40°51' E 001°25'1 1.3
2014-Aug-09 14:32N 40°50' E 001°24'2 0.4
2014-Aug-09 08:33N 40°52' E 001°26'4 4.2
2014-Aug-09 07:33N 40°50' E 001°22'2 1.3
2014-Aug-09 06:07N 40°51' E 001°23'1 1.1
2014-Aug-09 05:33N 40°51' E 001°24'1 0.9
2014-Aug-09 04:28N 40°52' E 001°25'0 0.3
2014-Aug-09 03:33N 40°52' E 001°25'1 0.1
2014-Aug-08 20:06N 40°52' E 001°26'1 0.4
2014-Aug-08 18:29N 40°51' E 001°27'0 0.4
2014-Aug-08 17:33N 40°51' E 001°27'1 0.7
2014-Aug-08 16:31N 40°51' E 001°28'6 5.9
2014-Aug-08 15:33N 40°53' E 001°35'1 0.7
2014-Aug-08 14:23N 40°54' E 001°35'1 0.6
2014-Aug-08 13:29N 40°54' E 001°34'2 1.0
2014-Aug-08 11:24N 40°53' E 001°31'2 1.6
2014-Aug-08 10:26N 40°54' E 001°31'2 1.1
2014-Aug-08 09:04N 40°54' E 001°29'2 0.7
2014-Aug-08 06:33N 40°53' E 001°27'1 0.7
2014-Aug-08 05:32N 40°52' E 001°26'1 0.1
2014-Aug-07 18:06N 40°53' E 001°25'1 0.7
2014-Aug-07 17:05N 40°53' E 001°25'23 3.0
2014-Aug-07 09:23N 41°07' E 001°50'1312.1
2014-Aug-07 08:19N 41°10' E 002°06'9 9.1
2014-Aug-07 07:22N 41°14' E 002°16'810.0
2014-Aug-07 06:33N 41°19' E 002°25'7 6.7
2014-Aug-07 05:32N 41°23' E 002°33'9 8.6
2014-Aug-07 04:26N 41°29' E 002°43'9 8.8
2014-Aug-07 03:23N 41°34' E 002°52'7 8.3
2014-Aug-07 02:33N 41°38' E 002°60'9 8.2
2014-Aug-07 01:29N 41°43' E 003°09'8 8.6
2014-Aug-07 00:31N 41°48' E 003°18'9 9.0
2014-Aug-06 23:32N 41°56' E 003°25'10 8.9
2014-Aug-06 22:23N 42°04' E 003°33'16 8.7
2014-Aug-06 20:33N 42°17' E 003°45'26 8.6
2014-Aug-06 17:33N 42°39' E 004°05'8 8.1
2014-Aug-06 16:33N 42°46' E 004°11'27 5.3
2014-Aug-06 11:23N 43°08' E 004°31'0 0.0
2014-Aug-06 03:24N 43°08' E 004°31'0 0.0
2014-Aug-06 00:19N 43°08' E 004°32'0 0.0
2014-Aug-05 22:18N 43°08' E 004°32'0 0.1
2014-Aug-05 19:18N 43°08' E 004°32'0 0.1
2014-Aug-05 18:17N 43°08' E 004°32'0 0.0
2014-Aug-05 17:25N 43°08' E 004°31'0 0.0
2014-Aug-05 16:19N 43°08' E 004°31'0 0.0
2014-Aug-05 01:31N 43°08' E 004°32'9 8.8
2014-Aug-05 00:32N 43°09' E 004°43'1212.7
2014-Aug-04 23:33N 43°11' E 005°00'1111.3
2014-Aug-04 22:33N 43°22' E 004°58'2 1.7
2014-Aug-04 21:32N 43°24' E 004°60'0 0.0
2014-Aug-04 20:32N 43°24' E 004°60'0 0.0
2014-Aug-04 19:32N 43°24' E 004°60'0 0.0
2014-Aug-04 18:32N 43°24' E 004°60'0 0.0
2014-Aug-04 17:32N 43°24' E 004°60'0 0.0
2014-Aug-04 16:32N 43°24' E 004°60'0 0.0
2014-Aug-04 15:32N 43°24' E 004°60'0 0.0
2014-Aug-04 14:32N 43°24' E 004°60'0 0.0
2014-Aug-04 13:32N 43°24' E 004°60'0 0.0
2014-Aug-04 12:32N 43°24' E 004°60'0 0.0
2014-Aug-04 11:32N 43°24' E 004°60'0 0.0
2014-Aug-04 10:32N 43°24' E 004°60'0 0.0
2014-Aug-04 09:32N 43°24' E 004°60'0 0.0
2014-Aug-04 08:32N 43°24' E 004°60'0 0.0
2014-Aug-04 07:32N 43°24' E 004°60'0 0.0
2014-Aug-04 06:32N 43°24' E 004°60'0 0.0
2014-Aug-04 05:32N 43°24' E 004°60'0 0.0
2014-Aug-04 04:32N 43°24' E 004°60'0 0.0
2014-Aug-04 03:31N 43°24' E 004°60'0 0.0
2014-Aug-04 02:31N 43°24' E 004°60'0 0.0
2014-Aug-04 01:31N 43°24' E 004°60'0 0.0
2014-Aug-04 00:31N 43°24' E 004°60'0 0.0
2014-Aug-03 23:31N 43°24' E 004°60'0 0.0
2014-Aug-03 22:31N 43°24' E 004°60'0 0.0
2014-Aug-03 21:31N 43°24' E 004°60'0 0.0
2014-Aug-03 20:31N 43°24' E 004°60'0 0.0
2014-Aug-03 19:31N 43°24' E 004°60'0 0.0
2014-Aug-03 18:31N 43°24' E 004°60'0 0.0
2014-Aug-03 17:31N 43°24' E 004°60'0 0.0
2014-Aug-03 11:31N 43°24' E 004°60'3 2.8
2014-Aug-03 10:33N 43°21' E 004°58'9 8.8
2014-Aug-03 09:33N 43°13' E 005°02'2612.0
2014-Aug-03 07:24N 43°01' E 005°33'1113.3
2014-Aug-03 06:33N 42°56' E 005°47'1313.3
2014-Aug-03 05:33N 42°50' E 006°03'1312.9
2014-Aug-03 04:33N 42°50' E 006°21'1313.0
2014-Aug-03 03:33N 42°52' E 006°38'1412.7
2014-Aug-03 02:28N 42°54' E 006°57'1212.7
2014-Aug-03 01:33N 42°56' E 007°12'3712.0
2014-Aug-02 22:25N 43°01' E 008°03'1511.9
2014-Aug-02 21:08N 43°03' E 008°24'711.9
2014-Aug-02 20:33N 43°04' E 008°33'1212.0
2014-Aug-02 19:33N 43°06' E 008°50'1312.0
2014-Aug-02 18:31N 43°08' E 009°07'1212.0
2014-Aug-02 17:33N 43°09' E 009°22'1110.7
2014-Aug-02 16:33N 43°06' E 009°36'1312.9
2014-Aug-02 15:33N 42°53' E 009°41'2512.3
2014-Aug-02 13:33N 42°30' E 009°51'  
Track history (hours):
 
Tides and Currents Weather Stations Pressure Air Temp Water Temp Dewpoint Dewpoint Depression Visibility Wind Speed Wind Dir Waves Ship Positions

Rosa Maersk

Last reported at 2014-Aug-12 11:25 UTC. Time now 2014-Aug-20 08:48 UTC.
Position N 37°22' W 000°52'.

Length 172 m; draft 11 m.

Type: Ship. MMSI: 220288000.

Date/timePositionNaut miles runAvg speedWind from/ knotsBaromVisibWave heightAir tempDewpointWater temp
2014-Aug-12 11:25N 37°22' W 000°52'1112.2
2014-Aug-12 10:33N 37°29' W 000°42'1212.3
2014-Aug-12 09:33N 37°38' W 000°31'1212.0
2014-Aug-12 08:33N 37°48' W 000°23'1212.0
2014-Aug-12 07:33N 37°58' W 000°14'6712.3
2014-Aug-12 02:08N 38°53' E 000°33'1212.4
2014-Aug-12 01:12N 39°03' E 000°41'812.2
2014-Aug-12 00:33N 39°09' E 000°47'3911.9
2014-Aug-11 21:18N 39°42' E 001°14'911.9
2014-Aug-11 20:33N 39°49' E 001°21'1212.1
2014-Aug-11 19:33N 39°59' E 001°29'1211.4
2014-Aug-11 18:33N 40°09' E 001°38'1211.6
2014-Aug-11 17:33N 40°18' E 001°46'2311.6
2014-Aug-11 15:33N 40°38' E 002°03'9 9.3
2014-Aug-11 14:33N 40°44' E 001°55'1311.7
2014-Aug-11 13:27N 40°51' E 001°40'1110.9
2014-Aug-11 12:29N 40°56' E 001°28'14 0.4
2014-Aug-10 04:05N 41°05' E 001°14'3 3.3
2014-Aug-10 03:19N 41°05' E 001°17'0 0.0
2014-Aug-09 23:10N 41°05' E 001°17'0 0.1
2014-Aug-09 22:26N 41°05' E 001°17'3 3.7
2014-Aug-09 21:33N 41°02' E 001°17'5 5.3
2014-Aug-09 20:33N 40°59' E 001°23'4 2.4
2014-Aug-09 19:03N 40°56' E 001°26'1 1.0
2014-Aug-09 18:32N 40°56' E 001°26'1 1.0
2014-Aug-09 17:33N 40°55' E 001°27'1 1.2
2014-Aug-09 16:18N 40°54' E 001°28'3 4.0
2014-Aug-09 15:31N 40°51' E 001°25'1 1.3
2014-Aug-09 14:32N 40°50' E 001°24'2 0.4
2014-Aug-09 08:33N 40°52' E 001°26'4 4.2
2014-Aug-09 07:33N 40°50' E 001°22'2 1.3
2014-Aug-09 06:07N 40°51' E 001°23'1 1.1
2014-Aug-09 05:33N 40°51' E 001°24'1 0.9
2014-Aug-09 04:28N 40°52' E 001°25'0 0.3
2014-Aug-09 03:33N 40°52' E 001°25'1 0.1
2014-Aug-08 20:06N 40°52' E 001°26'1 0.4
2014-Aug-08 18:29N 40°51' E 001°27'0 0.4
2014-Aug-08 17:33N 40°51' E 001°27'1 0.7
2014-Aug-08 16:31N 40°51' E 001°28'6 5.9
2014-Aug-08 15:33N 40°53' E 001°35'1 0.7
2014-Aug-08 14:23N 40°54' E 001°35'1 0.6
2014-Aug-08 13:29N 40°54' E 001°34'2 1.0
2014-Aug-08 11:24N 40°53' E 001°31'2 1.6
2014-Aug-08 10:26N 40°54' E 001°31'2 1.1
2014-Aug-08 09:04N 40°54' E 001°29'2 0.7
2014-Aug-08 06:33N 40°53' E 001°27'1 0.7
2014-Aug-08 05:32N 40°52' E 001°26'1 0.1
2014-Aug-07 18:06N 40°53' E 001°25'1 0.7
2014-Aug-07 17:05N 40°53' E 001°25'23 3.0
2014-Aug-07 09:23N 41°07' E 001°50'1312.1
2014-Aug-07 08:19N 41°10' E 002°06'9 9.1
2014-Aug-07 07:22N 41°14' E 002°16'810.0
2014-Aug-07 06:33N 41°19' E 002°25'7 6.7
2014-Aug-07 05:32N 41°23' E 002°33'9 8.6
2014-Aug-07 04:26N 41°29' E 002°43'9 8.8
2014-Aug-07 03:23N 41°34' E 002°52'7 8.3
2014-Aug-07 02:33N 41°38' E 002°60'9 8.2
2014-Aug-07 01:29N 41°43' E 003°09'8 8.6
2014-Aug-07 00:31N 41°48' E 003°18'9 9.0
2014-Aug-06 23:32N 41°56' E 003°25'10 8.9
2014-Aug-06 22:23N 42°04' E 003°33'16 8.7
2014-Aug-06 20:33N 42°17' E 003°45'26 8.6
2014-Aug-06 17:33N 42°39' E 004°05'8 8.1
2014-Aug-06 16:33N 42°46' E 004°11'27 5.3
2014-Aug-06 11:23N 43°08' E 004°31'0 0.0
2014-Aug-06 03:24N 43°08' E 004°31'0 0.0
2014-Aug-06 00:19N 43°08' E 004°32'0 0.0
2014-Aug-05 22:18N 43°08' E 004°32'0 0.1
2014-Aug-05 19:18N 43°08' E 004°32'0 0.1
2014-Aug-05 18:17N 43°08' E 004°32'0 0.0
2014-Aug-05 17:25N 43°08' E 004°31'0 0.0
2014-Aug-05 16:19N 43°08' E 004°31'0 0.0
2014-Aug-05 01:31N 43°08' E 004°32'9 8.8
2014-Aug-05 00:32N 43°09' E 004°43'1212.7
2014-Aug-04 23:33N 43°11' E 005°00'1111.3
2014-Aug-04 22:33N 43°22' E 004°58'2 1.7
2014-Aug-04 21:32N 43°24' E 004°60'0 0.0
2014-Aug-04 20:32N 43°24' E 004°60'0 0.0
2014-Aug-04 19:32N 43°24' E 004°60'0 0.0
2014-Aug-04 18:32N 43°24' E 004°60'0 0.0
2014-Aug-04 17:32N 43°24' E 004°60'0 0.0
2014-Aug-04 16:32N 43°24' E 004°60'0 0.0
2014-Aug-04 15:32N 43°24' E 004°60'0 0.0
2014-Aug-04 14:32N 43°24' E 004°60'0 0.0
2014-Aug-04 13:32N 43°24' E 004°60'0 0.0
2014-Aug-04 12:32N 43°24' E 004°60'0 0.0
2014-Aug-04 11:32N 43°24' E 004°60'0 0.0
2014-Aug-04 10:32N 43°24' E 004°60'0 0.0
2014-Aug-04 09:32N 43°24' E 004°60'0 0.0
2014-Aug-04 08:32N 43°24' E 004°60'0 0.0
2014-Aug-04 07:32N 43°24' E 004°60'0 0.0
2014-Aug-04 06:32N 43°24' E 004°60'0 0.0
2014-Aug-04 05:32N 43°24' E 004°60'0 0.0
2014-Aug-04 04:32N 43°24' E 004°60'0 0.0
2014-Aug-04 03:31N 43°24' E 004°60'0 0.0
2014-Aug-04 02:31N 43°24' E 004°60'0 0.0
2014-Aug-04 01:31N 43°24' E 004°60'0 0.0
2014-Aug-04 00:31N 43°24' E 004°60'0 0.0
2014-Aug-03 23:31N 43°24' E 004°60'0 0.0
2014-Aug-03 22:31N 43°24' E 004°60'0 0.0
2014-Aug-03 21:31N 43°24' E 004°60'0 0.0
2014-Aug-03 20:31N 43°24' E 004°60'0 0.0
2014-Aug-03 19:31N 43°24' E 004°60'0 0.0
2014-Aug-03 18:31N 43°24' E 004°60'0 0.0
2014-Aug-03 17:31N 43°24' E 004°60'0 0.0
2014-Aug-03 11:31N 43°24' E 004°60'3 2.8
2014-Aug-03 10:33N 43°21' E 004°58'9 8.8
2014-Aug-03 09:33N 43°13' E 005°02'2612.0
2014-Aug-03 07:24N 43°01' E 005°33'1113.3
2014-Aug-03 06:33N 42°56' E 005°47'1313.3
2014-Aug-03 05:33N 42°50' E 006°03'1312.9
2014-Aug-03 04:33N 42°50' E 006°21'1313.0
2014-Aug-03 03:33N 42°52' E 006°38'1412.7
2014-Aug-03 02:28N 42°54' E 006°57'1212.7
2014-Aug-03 01:33N 42°56' E 007°12'3712.0
2014-Aug-02 22:25N 43°01' E 008°03'1511.9
2014-Aug-02 21:08N 43°03' E 008°24'711.9
2014-Aug-02 20:33N 43°04' E 008°33'1212.0
2014-Aug-02 19:33N 43°06' E 008°50'1312.0
2014-Aug-02 18:31N 43°08' E 009°07'1212.0
2014-Aug-02 17:33N 43°09' E 009°22'1110.7
2014-Aug-02 16:33N 43°06' E 009°36'1312.9
2014-Aug-02 15:33N 42°53' E 009°41'2512.3
2014-Aug-02 13:33N 42°30' E 009°51'  

Dump ship's entire track history